Parkman, WY (82838)

10:44 AM MDT on April 25, 2015 (GMT -0600)
WYDOT | | Change Station
CLOSE
Current Station
Personal Weather Station
Location: Parkman, WY
Elevation: 4318 ft
Nearby Weather Stations

Elev 4318 ft 45.00 °N, 107.30 °W | Updated 19 minutes ago

Overcast
Overcast
37 °F
Feels Like 26 °F
N
21
Wind Variable Wind from West
Gusts 26.0 mph

Today
High -- | Low -- °F
--% Chance of Precip.
Yesterday
High -- | Low -- °F
Precip. -- in
6:08 AM 8:07 PM
Waxing Crescent, 47% visible
Pressure 29.74 in
Visibility 10.0 miles
Clouds Scattered Clouds 1300 ft
Overcast 2500 ft
Windchill 26 °F
Dew Point 35 °F
Humidity 95%
Rainfall in
Snow Depth Not available.
UV 2 out of 12
Pollen 9.70 out of 12
Air Quality Not available.
Flu Activity Local Activity
SPECI KSHR 251629Z AUTO 32018G25KT 10SM SCT013 OVC025 06/02 A2974 RMK AO2 PK WND 32026/1555 T00560017

More Conditions Fewer Conditions

Pressure 29.74 in
Visibility 10.0 miles
Clouds Scattered Clouds 1300 ft
Overcast 2500 ft
Windchill 26 °F
Dew Point 35 °F
Humidity 95%
Rainfall in
Snow Depth Not available.
UV 2 out of 12
Pollen 9.70 out of 12
Air Quality Not available.
Flu Activity Local Activity
SPECI KSHR 251629Z AUTO 32018G25KT 10SM SCT013 OVC025 06/02 A2974 RMK AO2 PK WND 32026/1555 T00560017

More Conditions Fewer Conditions

10-Day Weather Forecast

Almanac

Astronomy

Apr. 25, 2015 Rise Set
Actual Time
Civil Twilight
Nautical Twilight
Astronomical Twilight
Moon
Length of Visible Light
Length of Day
Tomorrow will be .
, % of the Moon is Illuminated

Today's Extremes

State Highs State Lows

Community

WunderPhotos

Upload Photos

1,816,737 photos uploaded!

WunderBlogs® & News

Nearby

Air Quality

  Air Quality AQ Index Pollutant
Not available.

Snow Depth

Station Depth Elevation

Earthquake Activity

City Distance Mag. Time & Date
Minimum magnitude displayed is 2.5.

Coastal Water Temperatures

Place Temperature

Stations

Nearby Weather Stations

Station Location Temp. Windchill Dew Point Humidity Wind Precip. Elev Updated Type